WIF95P ENSR-ENTC

Flight info

Callsign WIF95P
Flight time 0h 12m
Altitude 12000
Route HTK DCT TRO
Aircraft DH8B/M-SDFGR/S

Departure

Time 2026-04-20 09:43
Airport Sørkjosen Airport (ENSR)

Arrival

Time 2026-04-20 09:55
Airport Tromsø Airport (ENTC)
Time Latitude Longitude Altitude Speed Heading
2026-04-20 09:34 69.78560 20.95873 17 ft 0 kts 334°
2026-04-20 09:40 69.78560 20.95872 17 ft 0 kts 334°
2026-04-20 09:40 69.78590 20.95906 17 ft 10 kts 60°
2026-04-20 09:41 69.78651 20.95994 17 ft 14 kts 332°
2026-04-20 09:41 69.78758 20.95843 17 ft 20 kts 332°
2026-04-20 09:41 69.78894 20.95651 17 ft 24 kts 335°
2026-04-20 09:41 69.79046 20.95444 17 ft 10 kts 334°
2026-04-20 09:42 69.79114 20.95339 17 ft 6 kts
2026-04-20 09:42 69.79088 20.95381 17 ft 8 kts 160°
2026-04-20 09:42 69.79010 20.95488 17 ft 56 kts 154°
2026-04-20 09:42 69.78364 20.96393 95 ft 135 kts 154°
2026-04-20 09:43 69.77473 20.97640 723 ft 150 kts 150°
2026-04-20 09:43 69.76766 20.99900 1496 ft 163 kts 112°
2026-04-20 09:43 69.76875 21.03159 2347 ft 170 kts 61°
2026-04-20 09:43 69.77771 21.05500 2951 ft 185 kts 15°
2026-04-20 09:44 69.79033 21.05664 3633 ft 182 kts 335°
2026-04-20 09:44 69.80064 21.03743 4378 ft 177 kts 314°
2026-04-20 09:44 69.80998 21.01392 5141 ft 179 kts 313°
2026-04-20 09:44 69.81940 20.98988 5904 ft 182 kts 309°
2026-04-20 09:45 69.82479 20.95872 6647 ft 175 kts 274°
2026-04-20 09:45 69.82326 20.92388 7379 ft 175 kts 262°
2026-04-20 09:45 69.82170 20.88890 8115 ft 174 kts 268°
2026-04-20 09:45 69.82174 20.85366 8864 ft 175 kts 273°
2026-04-20 09:46 69.82198 20.81807 9634 ft 179 kts 271°
2026-04-20 09:46 69.82170 20.78169 10415 ft 182 kts 270°
2026-04-20 09:46 69.82130 20.74522 11128 ft 184 kts 270°
2026-04-20 09:46 69.82084 20.70790 11823 ft 188 kts 269°
2026-04-20 09:47 69.82031 20.66857 12020 ft 208 kts 270°
2026-04-20 09:47 69.81988 20.62434 12008 ft 231 kts 270°
2026-04-20 09:47 69.81942 20.57626 12053 ft 246 kts 270°
2026-04-20 09:47 69.81893 20.52546 12073 ft 257 kts 270°
2026-04-20 09:48 69.81877 20.50974 12081 ft 259 kts 270°
2026-04-20 09:48 69.81853 20.48498 12091 ft 262 kts 270°
2026-04-20 09:48 69.81826 20.45799 12101 ft 263 kts 270°
2026-04-20 09:49 69.81823 20.45446 12103 ft 261 kts 270°
2026-04-20 09:49 69.81799 20.43107 12104 ft 251 kts 270°
2026-04-20 09:50 69.81772 20.40667 12092 ft 243 kts 270°
2026-04-20 09:50 69.81714 20.35913 12027 ft 230 kts 270°
2026-04-20 09:50 69.81504 20.21322 11992 ft 223 kts 269°
2026-04-20 09:50 69.81249 20.02791 11849 ft 246 kts 269°
2026-04-20 09:51 69.80968 19.83280 9982 ft 226 kts 269°
2026-04-20 09:51 69.80678 19.65784 7895 ft 211 kts 268°
2026-04-20 09:51 69.80404 19.49357 6208 ft 194 kts 268°
2026-04-20 09:51 69.79064 19.33426 5152 ft 208 kts 256°
2026-04-20 09:52 69.77507 19.17212 4129 ft 209 kts 254°
2026-04-20 09:52 69.76843 19.10593 3717 ft 209 kts 254°
2026-04-20 09:52 69.76439 19.06544 3454 ft 210 kts 253°
2026-04-20 09:52 69.76352 19.05663 3367 ft 212 kts 253°
2026-04-20 09:53 69.75999 19.02204 3044 ft 213 kts 251°
2026-04-20 09:53 69.75309 18.98836 2663 ft 183 kts 227°
2026-04-20 09:53 69.74393 18.96573 2245 ft 166 kts 215°
2026-04-20 09:53 69.73386 18.95192 1774 ft 156 kts 199°
2026-04-20 09:54 69.72345 18.94549 1230 ft 150 kts 192°
2026-04-20 09:54 69.71365 18.93927 797 ft 139 kts 195°
2026-04-20 09:54 69.70461 18.93283 468 ft 129 kts 194°
2026-04-20 09:54 69.69612 18.92743 179 ft 121 kts 192°
2026-04-20 09:55 69.68832 18.92228 28 ft 107 kts 193°
2026-04-20 09:55 69.68297 18.91862 22 ft 48 kts 193°
2026-04-20 09:55 69.68069 18.91690 28 ft 19 kts 218°
2026-04-20 09:55 69.68075 18.91459 29 ft 12 kts 275°
2026-04-20 09:56 69.68068 18.91241 29 ft 10 kts 271°
2026-04-20 09:56 69.68079 18.91090 32 ft 5 kts 283°
2026-04-20 09:56 69.68086 18.91001 33 ft 4 kts 282°
2026-04-20 09:56 69.68087 18.90995 33 ft 0 kts 282°